sensor_id;sensor_type;location;lat;lon;timestamp;temperature;humidity
58339;DHT22;48278;52.704;6.536;2023-03-14T00:02:17;10.20;99.90
58339;DHT22;48278;52.704;6.536;2023-03-14T00:04:43;10.20;99.90
58339;DHT22;48278;52.704;6.536;2023-03-14T00:07:11;10.20;99.90
58339;DHT22;48278;52.704;6.536;2023-03-14T00:09:37;10.20;99.90
58339;DHT22;48278;52.704;6.536;2023-03-14T00:12:03;10.30;99.90
58339;DHT22;48278;52.704;6.536;2023-03-14T00:14:30;10.30;99.90
58339;DHT22;48278;52.704;6.536;2023-03-14T00:16:56;10.30;99.90
58339;DHT22;48278;52.704;6.536;2023-03-14T00:19:22;10.40;99.90
58339;DHT22;48278;52.704;6.536;2023-03-14T00:21:48;10.40;99.90
58339;DHT22;48278;52.704;6.536;2023-03-14T00:24:13;10.50;99.90
58339;DHT22;48278;52.704;6.536;2023-03-14T00:26:39;10.50;99.90
58339;DHT22;48278;52.704;6.536;2023-03-14T00:29:05;10.50;99.90
58339;DHT22;48278;52.704;6.536;2023-03-14T00:31:31;10.50;99.90
58339;DHT22;48278;52.704;6.536;2023-03-14T00:33:57;10.50;99.90
58339;DHT22;48278;52.704;6.536;2023-03-14T00:36:22;10.50;99.90
58339;DHT22;48278;52.704;6.536;2023-03-14T00:38:51;10.50;99.90
58339;DHT22;48278;52.704;6.536;2023-03-14T00:41:22;10.50;99.90
58339;DHT22;48278;52.704;6.536;2023-03-14T00:43:51;10.30;99.90
58339;DHT22;48278;52.704;6.536;2023-03-14T00:46:17;10.30;99.90
58339;DHT22;48278;52.704;6.536;2023-03-14T00:48:45;10.20;99.90
58339;DHT22;48278;52.704;6.536;2023-03-14T00:51:12;10.10;99.90
58339;DHT22;48278;52.704;6.536;2023-03-14T00:53:39;10.00;99.90
58339;DHT22;48278;52.704;6.536;2023-03-14T00:56:08;9.90;99.90
58339;DHT22;48278;52.704;6.536;2023-03-14T00:58:34;9.80;99.90
58339;DHT22;48278;52.704;6.536;2023-03-14T01:01:08;9.80;99.90
58339;DHT22;48278;52.704;6.536;2023-03-14T01:03:35;9.80;99.90
58339;DHT22;48278;52.704;6.536;2023-03-14T01:06:15;9.70;99.90
58339;DHT22;48278;52.704;6.536;2023-03-14T01:08:41;9.60;99.90
58339;DHT22;48278;52.704;6.536;2023-03-14T01:11:14;9.50;99.90
58339;DHT22;48278;52.704;6.536;2023-03-14T01:13:41;9.50;99.90
58339;DHT22;48278;52.704;6.536;2023-03-14T01:16:08;9.40;99.90
58339;DHT22;48278;52.704;6.536;2023-03-14T01:18:35;9.50;99.90
58339;DHT22;48278;52.704;6.536;2023-03-14T01:21:03;9.40;99.90
58339;DHT22;48278;52.704;6.536;2023-03-14T01:23:29;9.40;99.90
58339;DHT22;48278;52.704;6.536;2023-03-14T01:25:55;9.40;99.90
58339;DHT22;48278;52.704;6.536;2023-03-14T01:28:20;9.40;99.90
58339;DHT22;48278;52.704;6.536;2023-03-14T01:30:46;9.40;99.90
58339;DHT22;48278;52.704;6.536;2023-03-14T01:33:12;9.30;99.90
58339;DHT22;48278;52.704;6.536;2023-03-14T01:35:39;9.20;99.90
58339;DHT22;48278;52.704;6.536;2023-03-14T01:38:06;9.20;99.90
58339;DHT22;48278;52.704;6.536;2023-03-14T01:40:31;9.20;99.90
58339;DHT22;48278;52.704;6.536;2023-03-14T01:43:05;9.20;99.90
58339;DHT22;48278;52.704;6.536;2023-03-14T01:51:29;9.30;99.90
58339;DHT22;48278;52.704;6.536;2023-03-14T01:54:05;9.30;99.90
58339;DHT22;48278;52.704;6.536;2023-03-14T01:56:32;9.40;99.90
58339;DHT22;48278;52.704;6.536;2023-03-14T01:58:58;9.40;99.90
58339;DHT22;48278;52.704;6.536;2023-03-14T02:01:26;9.50;99.90
58339;DHT22;48278;52.704;6.536;2023-03-14T02:03:55;9.60;99.90
58339;DHT22;48278;52.704;6.536;2023-03-14T02:06:29;9.60;99.90
58339;DHT22;48278;52.704;6.536;2023-03-14T02:08:56;9.70;99.90
58339;DHT22;48278;52.704;6.536;2023-03-14T02:11:26;9.70;99.90
58339;DHT22;48278;52.704;6.536;2023-03-14T02:13:54;9.70;99.90
58339;DHT22;48278;52.704;6.536;2023-03-14T02:16:20;9.70;99.90
58339;DHT22;48278;52.704;6.536;2023-03-14T02:18:46;9.70;99.90
58339;DHT22;48278;52.704;6.536;2023-03-14T02:21:13;9.80;99.90
58339;DHT22;48278;52.704;6.536;2023-03-14T02:23:57;9.80;99.90
58339;DHT22;48278;52.704;6.536;2023-03-14T02:29:12;9.90;99.90
58339;DHT22;48278;52.704;6.536;2023-03-14T02:31:38;9.90;99.90
58339;DHT22;48278;52.704;6.536;2023-03-14T02:34:04;9.90;99.90
58339;DHT22;48278;52.704;6.536;2023-03-14T02:36:31;9.90;99.90
58339;DHT22;48278;52.704;6.536;2023-03-14T02:39:20;9.80;99.90
58339;DHT22;48278;52.704;6.536;2023-03-14T02:41:47;9.80;99.90
58339;DHT22;48278;52.704;6.536;2023-03-14T02:44:14;9.70;99.90
58339;DHT22;48278;52.704;6.536;2023-03-14T02:46:40;9.70;99.90
58339;DHT22;48278;52.704;6.536;2023-03-14T02:49:08;9.70;99.90
58339;DHT22;48278;52.704;6.536;2023-03-14T02:51:36;9.70;99.90
58339;DHT22;48278;52.704;6.536;2023-03-14T02:54:03;9.70;99.90
58339;DHT22;48278;52.704;6.536;2023-03-14T02:56:28;9.50;99.90
58339;DHT22;48278;52.704;6.536;2023-03-14T02:58:54;9.40;99.90
58339;DHT22;48278;52.704;6.536;2023-03-14T03:01:20;9.30;99.90
58339;DHT22;48278;52.704;6.536;2023-03-14T03:03:46;9.30;99.90
58339;DHT22;48278;52.704;6.536;2023-03-14T03:06:11;9.30;99.90
58339;DHT22;48278;52.704;6.536;2023-03-14T03:08:37;9.30;99.90
58339;DHT22;48278;52.704;6.536;2023-03-14T03:11:03;9.30;99.90
58339;DHT22;48278;52.704;6.536;2023-03-14T03:13:29;9.30;99.90
58339;DHT22;48278;52.704;6.536;2023-03-14T03:15:55;9.30;99.90
58339;DHT22;48278;52.704;6.536;2023-03-14T03:18:21;9.30;99.90
58339;DHT22;48278;52.704;6.536;2023-03-14T03:20:46;9.30;99.90
58339;DHT22;48278;52.704;6.536;2023-03-14T03:23:13;9.30;99.90
58339;DHT22;48278;52.704;6.536;2023-03-14T03:25:38;9.30;99.90
58339;DHT22;48278;52.704;6.536;2023-03-14T03:28:04;9.20;99.90
58339;DHT22;48278;52.704;6.536;2023-03-14T03:30:37;9.30;99.90
58339;DHT22;48278;52.704;6.536;2023-03-14T03:33:02;9.30;99.90
58339;DHT22;48278;52.704;6.536;2023-03-14T03:35:28;9.30;99.90
58339;DHT22;48278;52.704;6.536;2023-03-14T03:37:54;9.30;99.90
58339;DHT22;48278;52.704;6.536;2023-03-14T03:40:19;9.30;99.90
58339;DHT22;48278;52.704;6.536;2023-03-14T03:42:45;9.40;99.90
58339;DHT22;48278;52.704;6.536;2023-03-14T03:45:11;9.30;99.90
58339;DHT22;48278;52.704;6.536;2023-03-14T03:47:37;9.30;99.90
58339;DHT22;48278;52.704;6.536;2023-03-14T03:50:03;9.20;99.90
58339;DHT22;48278;52.704;6.536;2023-03-14T03:52:28;9.40;99.90
58339;DHT22;48278;52.704;6.536;2023-03-14T03:54:54;9.40;99.90
58339;DHT22;48278;52.704;6.536;2023-03-14T03:57:20;9.30;99.90
58339;DHT22;48278;52.704;6.536;2023-03-14T03:59:46;9.30;99.90
58339;DHT22;48278;52.704;6.536;2023-03-14T04:02:11;9.30;99.90
58339;DHT22;48278;52.704;6.536;2023-03-14T04:04:37;9.20;99.90
58339;DHT22;48278;52.704;6.536;2023-03-14T04:07:04;9.10;99.90
58339;DHT22;48278;52.704;6.536;2023-03-14T04:09:30;9.10;99.90
58339;DHT22;48278;52.704;6.536;2023-03-14T04:11:56;9.10;99.90
58339;DHT22;48278;52.704;6.536;2023-03-14T04:14:22;9.20;99.90
58339;DHT22;48278;52.704;6.536;2023-03-14T04:16:48;9.20;99.90
58339;DHT22;48278;52.704;6.536;2023-03-14T04:19:14;9.10;99.90
58339;DHT22;48278;52.704;6.536;2023-03-14T04:21:40;9.10;99.90
58339;DHT22;48278;52.704;6.536;2023-03-14T04:24:10;9.10;99.90
58339;DHT22;48278;52.704;6.536;2023-03-14T04:26:36;9.10;99.90
58339;DHT22;48278;52.704;6.536;2023-03-14T04:29:02;9.00;99.90
58339;DHT22;48278;52.704;6.536;2023-03-14T04:31:27;9.00;99.90
58339;DHT22;48278;52.704;6.536;2023-03-14T04:33:53;9.10;99.90
58339;DHT22;48278;52.704;6.536;2023-03-14T04:36:19;9.10;99.90
58339;DHT22;48278;52.704;6.536;2023-03-14T04:38:45;9.10;99.90
58339;DHT22;48278;52.704;6.536;2023-03-14T04:41:11;9.10;99.90
58339;DHT22;48278;52.704;6.536;2023-03-14T04:43:37;9.10;99.90
58339;DHT22;48278;52.704;6.536;2023-03-14T04:46:03;9.10;99.90
58339;DHT22;48278;52.704;6.536;2023-03-14T04:48:29;9.10;99.90
58339;DHT22;48278;52.704;6.536;2023-03-14T04:50:54;9.10;99.90
58339;DHT22;48278;52.704;6.536;2023-03-14T04:53:20;9.20;99.90
58339;DHT22;48278;52.704;6.536;2023-03-14T04:55:51;9.20;99.90
58339;DHT22;48278;52.704;6.536;2023-03-14T04:58:18;9.20;99.90
58339;DHT22;48278;52.704;6.536;2023-03-14T05:00:45;9.20;99.90
58339;DHT22;48278;52.704;6.536;2023-03-14T05:03:11;9.20;99.90
58339;DHT22;48278;52.704;6.536;2023-03-14T05:05:36;9.20;99.90
58339;DHT22;48278;52.704;6.536;2023-03-14T05:08:02;9.20;99.90
58339;DHT22;48278;52.704;6.536;2023-03-14T05:10:28;9.20;99.90
58339;DHT22;48278;52.704;6.536;2023-03-14T05:12:54;9.30;99.90
58339;DHT22;48278;52.704;6.536;2023-03-14T05:15:20;9.30;99.90
58339;DHT22;48278;52.704;6.536;2023-03-14T05:17:45;9.30;99.90
58339;DHT22;48278;52.704;6.536;2023-03-14T05:20:12;9.20;99.90
58339;DHT22;48278;52.704;6.536;2023-03-14T05:22:41;9.20;99.90
58339;DHT22;48278;52.704;6.536;2023-03-14T05:25:07;9.20;99.90
58339;DHT22;48278;52.704;6.536;2023-03-14T05:27:33;9.30;99.90
58339;DHT22;48278;52.704;6.536;2023-03-14T05:29:59;9.20;99.90
58339;DHT22;48278;52.704;6.536;2023-03-14T05:32:25;9.10;99.90
58339;DHT22;48278;52.704;6.536;2023-03-14T05:34:50;9.10;99.90
58339;DHT22;48278;52.704;6.536;2023-03-14T05:37:16;9.10;99.90
58339;DHT22;48278;52.704;6.536;2023-03-14T05:39:42;9.00;99.90
58339;DHT22;48278;52.704;6.536;2023-03-14T05:42:07;9.00;99.90
58339;DHT22;48278;52.704;6.536;2023-03-14T05:44:33;9.00;99.90
58339;DHT22;48278;52.704;6.536;2023-03-14T05:46:59;9.00;99.90
58339;DHT22;48278;52.704;6.536;2023-03-14T05:49:25;8.90;99.90
58339;DHT22;48278;52.704;6.536;2023-03-14T05:51:51;8.90;99.90
58339;DHT22;48278;52.704;6.536;2023-03-14T05:54:16;8.90;99.90
58339;DHT22;48278;52.704;6.536;2023-03-14T05:56:42;8.90;99.90
58339;DHT22;48278;52.704;6.536;2023-03-14T05:59:08;8.90;99.90
58339;DHT22;48278;52.704;6.536;2023-03-14T06:01:34;8.80;99.90
58339;DHT22;48278;52.704;6.536;2023-03-14T06:04:00;8.80;99.90
58339;DHT22;48278;52.704;6.536;2023-03-14T06:06:26;8.80;99.90
58339;DHT22;48278;52.704;6.536;2023-03-14T06:08:51;8.80;99.90
58339;DHT22;48278;52.704;6.536;2023-03-14T06:11:17;8.90;99.90
58339;DHT22;48278;52.704;6.536;2023-03-14T06:13:43;8.80;99.90
58339;DHT22;48278;52.704;6.536;2023-03-14T06:16:09;8.80;99.90
58339;DHT22;48278;52.704;6.536;2023-03-14T06:18:34;8.90;99.90
58339;DHT22;48278;52.704;6.536;2023-03-14T06:21:00;8.90;99.90
58339;DHT22;48278;52.704;6.536;2023-03-14T06:23:26;8.90;99.90
58339;DHT22;48278;52.704;6.536;2023-03-14T06:25:52;8.90;99.90
58339;DHT22;48278;52.704;6.536;2023-03-14T06:28:18;8.90;99.90
58339;DHT22;48278;52.704;6.536;2023-03-14T06:30:44;8.90;99.90
58339;DHT22;48278;52.704;6.536;2023-03-14T06:33:10;8.90;99.90
58339;DHT22;48278;52.704;6.536;2023-03-14T06:35:35;8.90;99.90
58339;DHT22;48278;52.704;6.536;2023-03-14T06:38:01;8.90;99.90
58339;DHT22;48278;52.704;6.536;2023-03-14T06:40:27;9.00;99.90
58339;DHT22;48278;52.704;6.536;2023-03-14T06:42:52;9.00;99.90
58339;DHT22;48278;52.704;6.536;2023-03-14T06:45:18;9.00;99.90
58339;DHT22;48278;52.704;6.536;2023-03-14T06:47:44;9.00;99.90
58339;DHT22;48278;52.704;6.536;2023-03-14T06:50:10;9.00;99.90
58339;DHT22;48278;52.704;6.536;2023-03-14T06:52:36;8.90;99.90
58339;DHT22;48278;52.704;6.536;2023-03-14T06:55:02;9.00;99.90
58339;DHT22;48278;52.704;6.536;2023-03-14T06:57:28;9.00;99.90
58339;DHT22;48278;52.704;6.536;2023-03-14T06:59:54;9.00;99.90
58339;DHT22;48278;52.704;6.536;2023-03-14T07:02:20;9.00;99.90
58339;DHT22;48278;52.704;6.536;2023-03-14T07:04:47;9.00;99.90
58339;DHT22;48278;52.704;6.536;2023-03-14T07:07:13;9.00;99.90
58339;DHT22;48278;52.704;6.536;2023-03-14T07:09:38;9.00;99.90
58339;DHT22;48278;52.704;6.536;2023-03-14T07:12:04;9.00;99.90
58339;DHT22;48278;52.704;6.536;2023-03-14T07:14:30;9.10;99.90
58339;DHT22;48278;52.704;6.536;2023-03-14T07:16:56;9.10;99.90
58339;DHT22;48278;52.704;6.536;2023-03-14T07:19:22;9.00;99.90
58339;DHT22;48278;52.704;6.536;2023-03-14T07:21:48;8.70;99.90
58339;DHT22;48278;52.704;6.536;2023-03-14T07:24:13;8.40;99.90
58339;DHT22;48278;52.704;6.536;2023-03-14T07:26:39;8.30;99.90
58339;DHT22;48278;52.704;6.536;2023-03-14T07:29:05;8.10;99.90
58339;DHT22;48278;52.704;6.536;2023-03-14T07:31:30;8.10;99.90
58339;DHT22;48278;52.704;6.536;2023-03-14T07:33:56;8.00;99.90
58339;DHT22;48278;52.704;6.536;2023-03-14T07:36:22;7.90;99.90
58339;DHT22;48278;52.704;6.536;2023-03-14T07:38:48;7.90;99.90
58339;DHT22;48278;52.704;6.536;2023-03-14T07:41:14;7.80;99.90
58339;DHT22;48278;52.704;6.536;2023-03-14T07:43:40;7.80;99.90
58339;DHT22;48278;52.704;6.536;2023-03-14T07:46:06;8.20;99.90
58339;DHT22;48278;52.704;6.536;2023-03-14T07:48:31;8.20;99.90
58339;DHT22;48278;52.704;6.536;2023-03-14T07:50:57;7.50;99.90
58339;DHT22;48278;52.704;6.536;2023-03-14T07:53:24;7.50;99.90
58339;DHT22;48278;52.704;6.536;2023-03-14T07:55:54;7.20;99.90
58339;DHT22;48278;52.704;6.536;2023-03-14T07:58:20;7.10;99.90
58339;DHT22;48278;52.704;6.536;2023-03-14T08:00:47;7.20;99.90
58339;DHT22;48278;52.704;6.536;2023-03-14T08:03:13;6.80;99.90
58339;DHT22;48278;52.704;6.536;2023-03-14T08:05:39;6.30;99.90
58339;DHT22;48278;52.704;6.536;2023-03-14T08:08:05;6.00;99.90
58339;DHT22;48278;52.704;6.536;2023-03-14T08:10:32;6.00;99.90
58339;DHT22;48278;52.704;6.536;2023-03-14T08:13:00;5.60;99.90
58339;DHT22;48278;52.704;6.536;2023-03-14T08:15:28;5.60;99.90
58339;DHT22;48278;52.704;6.536;2023-03-14T08:17:54;5.50;99.90
58339;DHT22;48278;52.704;6.536;2023-03-14T08:20:21;5.50;99.90
58339;DHT22;48278;52.704;6.536;2023-03-14T08:22:47;5.50;99.90
58339;DHT22;48278;52.704;6.536;2023-03-14T08:25:13;5.20;99.90
58339;DHT22;48278;52.704;6.536;2023-03-14T08:27:39;5.20;99.90
58339;DHT22;48278;52.704;6.536;2023-03-14T08:30:08;5.10;99.90
58339;DHT22;48278;52.704;6.536;2023-03-14T08:32:34;5.30;99.90
58339;DHT22;48278;52.704;6.536;2023-03-14T08:35:00;5.20;99.90
58339;DHT22;48278;52.704;6.536;2023-03-14T08:37:26;5.00;99.90
58339;DHT22;48278;52.704;6.536;2023-03-14T08:39:52;5.10;99.90
58339;DHT22;48278;52.704;6.536;2023-03-14T08:42:18;5.10;99.90
58339;DHT22;48278;52.704;6.536;2023-03-14T08:44:44;5.10;99.90
58339;DHT22;48278;52.704;6.536;2023-03-14T08:47:10;5.00;99.90
58339;DHT22;48278;52.704;6.536;2023-03-14T08:49:36;5.10;99.90
58339;DHT22;48278;52.704;6.536;2023-03-14T08:52:03;5.20;99.90
58339;DHT22;48278;52.704;6.536;2023-03-14T08:54:30;5.20;99.90
58339;DHT22;48278;52.704;6.536;2023-03-14T08:56:56;5.20;99.90
58339;DHT22;48278;52.704;6.536;2023-03-14T08:59:22;5.20;99.90
58339;DHT22;48278;52.704;6.536;2023-03-14T09:01:48;5.20;99.90
58339;DHT22;48278;52.704;6.536;2023-03-14T09:04:13;5.10;99.90
58339;DHT22;48278;52.704;6.536;2023-03-14T09:06:39;5.10;99.90
58339;DHT22;48278;52.704;6.536;2023-03-14T09:09:05;5.30;99.90
58339;DHT22;48278;52.704;6.536;2023-03-14T09:11:31;5.20;99.90
58339;DHT22;48278;52.704;6.536;2023-03-14T09:13:57;5.30;99.90
58339;DHT22;48278;52.704;6.536;2023-03-14T09:16:23;5.20;99.90
58339;DHT22;48278;52.704;6.536;2023-03-14T09:18:48;5.40;99.90
58339;DHT22;48278;52.704;6.536;2023-03-14T09:21:14;5.30;99.90
58339;DHT22;48278;52.704;6.536;2023-03-14T09:23:41;5.40;99.90
58339;DHT22;48278;52.704;6.536;2023-03-14T09:26:07;5.50;99.90
58339;DHT22;48278;52.704;6.536;2023-03-14T09:28:33;5.60;99.90
58339;DHT22;48278;52.704;6.536;2023-03-14T09:31:08;5.60;99.90
58339;DHT22;48278;52.704;6.536;2023-03-14T09:33:35;5.50;99.90
58339;DHT22;48278;52.704;6.536;2023-03-14T09:36:01;5.80;99.90
58339;DHT22;48278;52.704;6.536;2023-03-14T09:38:27;5.70;99.90
58339;DHT22;48278;52.704;6.536;2023-03-14T09:40:54;5.80;99.90
58339;DHT22;48278;52.704;6.536;2023-03-14T09:43:21;5.70;99.90
58339;DHT22;48278;52.704;6.536;2023-03-14T09:45:48;5.70;99.90
58339;DHT22;48278;52.704;6.536;2023-03-14T09:48:20;5.80;99.90
58339;DHT22;48278;52.704;6.536;2023-03-14T09:50:51;5.80;99.90
58339;DHT22;48278;52.704;6.536;2023-03-14T09:53:21;6.10;99.90
58339;DHT22;48278;52.704;6.536;2023-03-14T09:55:50;6.00;99.90
58339;DHT22;48278;52.704;6.536;2023-03-14T09:58:21;6.10;99.90
58339;DHT22;48278;52.704;6.536;2023-03-14T10:00:49;6.00;99.90
58339;DHT22;48278;52.704;6.536;2023-03-14T10:03:31;6.00;99.90
58339;DHT22;48278;52.704;6.536;2023-03-14T10:05:57;6.10;99.90
58339;DHT22;48278;52.704;6.536;2023-03-14T10:08:23;6.20;99.90
58339;DHT22;48278;52.704;6.536;2023-03-14T10:10:49;6.10;99.90
58339;DHT22;48278;52.704;6.536;2023-03-14T10:13:23;6.20;99.90
58339;DHT22;48278;52.704;6.536;2023-03-14T10:18:18;6.50;99.90
58339;DHT22;48278;52.704;6.536;2023-03-14T10:20:47;6.50;99.90
58339;DHT22;48278;52.704;6.536;2023-03-14T10:25:44;5.90;99.90
58339;DHT22;48278;52.704;6.536;2023-03-14T10:28:31;5.80;99.90
58339;DHT22;48278;52.704;6.536;2023-03-14T10:30:57;5.90;99.90
58339;DHT22;48278;52.704;6.536;2023-03-14T10:33:29;6.00;99.90
58339;DHT22;48278;52.704;6.536;2023-03-14T10:36:06;6.20;99.90
58339;DHT22;48278;52.704;6.536;2023-03-14T10:38:36;6.30;99.90
58339;DHT22;48278;52.704;6.536;2023-03-14T10:41:13;6.40;99.90
58339;DHT22;48278;52.704;6.536;2023-03-14T10:43:41;6.50;99.90
58339;DHT22;48278;52.704;6.536;2023-03-14T10:46:14;6.10;99.90
58339;DHT22;48278;52.704;6.536;2023-03-14T10:48:40;5.90;99.90
58339;DHT22;48278;52.704;6.536;2023-03-14T10:53:49;6.00;99.90
58339;DHT22;48278;52.704;6.536;2023-03-14T10:56:20;6.20;99.90
58339;DHT22;48278;52.704;6.536;2023-03-14T10:58:48;6.40;99.90
58339;DHT22;48278;52.704;6.536;2023-03-14T11:03:49;6.70;99.90
58339;DHT22;48278;52.704;6.536;2023-03-14T11:06:22;6.60;99.90
58339;DHT22;48278;52.704;6.536;2023-03-14T11:09:00;6.80;99.90
58339;DHT22;48278;52.704;6.536;2023-03-14T11:11:31;6.80;99.90
58339;DHT22;48278;52.704;6.536;2023-03-14T11:14:23;6.80;99.90
58339;DHT22;48278;52.704;6.536;2023-03-14T11:17:02;6.90;99.90
58339;DHT22;48278;52.704;6.536;2023-03-14T11:30:02;6.90;99.90
58339;DHT22;48278;52.704;6.536;2023-03-14T11:32:50;6.90;99.90
58339;DHT22;48278;52.704;6.536;2023-03-14T11:40:45;7.20;99.90
58339;DHT22;48278;52.704;6.536;2023-03-14T11:43:36;7.00;99.90
58339;DHT22;48278;52.704;6.536;2023-03-14T11:46:20;6.90;99.00
58339;DHT22;48278;52.704;6.536;2023-03-14T11:49:01;6.90;99.90
58339;DHT22;48278;52.704;6.536;2023-03-14T11:51:50;6.70;97.60
58339;DHT22;48278;52.704;6.536;2023-03-14T11:57:11;7.10;96.60
58339;DHT22;48278;52.704;6.536;2023-03-14T12:02:26;7.00;92.00
58339;DHT22;48278;52.704;6.536;2023-03-14T12:07:42;7.30;94.30
58339;DHT22;48278;52.704;6.536;2023-03-14T12:10:18;7.40;95.30
58339;DHT22;48278;52.704;6.536;2023-03-14T12:12:44;7.30;94.50
58339;DHT22;48278;52.704;6.536;2023-03-14T12:15:18;6.90;93.10
58339;DHT22;48278;52.704;6.536;2023-03-14T12:17:45;6.60;92.50
58339;DHT22;48278;52.704;6.536;2023-03-14T12:20:16;6.60;92.90
58339;DHT22;48278;52.704;6.536;2023-03-14T12:22:55;6.90;93.70
58339;DHT22;48278;52.704;6.536;2023-03-14T12:25:30;6.90;92.90
58339;DHT22;48278;52.704;6.536;2023-03-14T12:33:11;7.10;91.90
58339;DHT22;48278;52.704;6.536;2023-03-14T12:38:11;7.10;91.70
58339;DHT22;48278;52.704;6.536;2023-03-14T12:40:54;7.00;91.10
58339;DHT22;48278;52.704;6.536;2023-03-14T12:43:33;6.90;90.20
58339;DHT22;48278;52.704;6.536;2023-03-14T12:51:38;7.20;89.00
58339;DHT22;48278;52.704;6.536;2023-03-14T12:57:20;7.50;90.60
58339;DHT22;48278;52.704;6.536;2023-03-14T12:59:51;7.80;90.90
58339;DHT22;48278;52.704;6.536;2023-03-14T13:02:20;7.80;88.70
58339;DHT22;48278;52.704;6.536;2023-03-14T13:15:27;7.50;91.60
58339;DHT22;48278;52.704;6.536;2023-03-14T13:17:56;7.30;92.00
58339;DHT22;48278;52.704;6.536;2023-03-14T13:20:36;7.30;93.60
58339;DHT22;48278;52.704;6.536;2023-03-14T13:23:03;7.20;93.90
58339;DHT22;48278;52.704;6.536;2023-03-14T13:25:34;7.20;94.70
58339;DHT22;48278;52.704;6.536;2023-03-14T13:28:01;7.00;96.00
58339;DHT22;48278;52.704;6.536;2023-03-14T13:30:35;6.80;95.80
58339;DHT22;48278;52.704;6.536;2023-03-14T13:33:04;6.90;96.20
58339;DHT22;48278;52.704;6.536;2023-03-14T13:35:42;6.70;94.50
58339;DHT22;48278;52.704;6.536;2023-03-14T13:38:18;6.60;94.30
58339;DHT22;48278;52.704;6.536;2023-03-14T13:40:45;6.50;93.70
58339;DHT22;48278;52.704;6.536;2023-03-14T13:43:13;6.50;90.20
58339;DHT22;48278;52.704;6.536;2023-03-14T13:45:54;6.70;90.10
58339;DHT22;48278;52.704;6.536;2023-03-14T13:48:22;7.10;90.60
58339;DHT22;48278;52.704;6.536;2023-03-14T13:51:10;7.20;90.00
58339;DHT22;48278;52.704;6.536;2023-03-14T13:53:48;7.40;91.60
58339;DHT22;48278;52.704;6.536;2023-03-14T13:56:21;7.20;84.30
58339;DHT22;48278;52.704;6.536;2023-03-14T13:58:47;7.20;86.80
58339;DHT22;48278;52.704;6.536;2023-03-14T14:01:20;7.20;83.40
58339;DHT22;48278;52.704;6.536;2023-03-14T14:03:49;7.20;81.30
58339;DHT22;48278;52.704;6.536;2023-03-14T14:06:32;7.20;81.60
58339;DHT22;48278;52.704;6.536;2023-03-14T14:09:12;7.10;82.60
58339;DHT22;48278;52.704;6.536;2023-03-14T14:11:53;7.20;84.30
58339;DHT22;48278;52.704;6.536;2023-03-14T14:16:58;7.00;80.40
58339;DHT22;48278;52.704;6.536;2023-03-14T14:19:25;6.90;81.00
58339;DHT22;48278;52.704;6.536;2023-03-14T14:21:53;6.70;83.30
58339;DHT22;48278;52.704;6.536;2023-03-14T14:24:22;6.80;84.80
58339;DHT22;48278;52.704;6.536;2023-03-14T14:27:12;6.90;84.60
58339;DHT22;48278;52.704;6.536;2023-03-14T14:29:39;7.00;84.90
58339;DHT22;48278;52.704;6.536;2023-03-14T14:35:00;6.90;82.20
58339;DHT22;48278;52.704;6.536;2023-03-14T14:37:33;7.10;83.60
58339;DHT22;48278;52.704;6.536;2023-03-14T14:40:06;6.90;82.70
58339;DHT22;48278;52.704;6.536;2023-03-14T14:42:33;6.90;83.70
58339;DHT22;48278;52.704;6.536;2023-03-14T14:44:59;7.00;84.10
58339;DHT22;48278;52.704;6.536;2023-03-14T14:47:29;7.10;85.00
58339;DHT22;48278;52.704;6.536;2023-03-14T14:49:59;7.20;84.30
58339;DHT22;48278;52.704;6.536;2023-03-14T14:52:44;7.20;83.90
58339;DHT22;48278;52.704;6.536;2023-03-14T14:55:18;7.10;83.00
58339;DHT22;48278;52.704;6.536;2023-03-14T14:57:53;6.90;80.90
58339;DHT22;48278;52.704;6.536;2023-03-14T15:00:24;6.80;82.80
58339;DHT22;48278;52.704;6.536;2023-03-14T15:02:53;6.60;83.90
58339;DHT22;48278;52.704;6.536;2023-03-14T15:05:25;6.70;85.90
58339;DHT22;48278;52.704;6.536;2023-03-14T15:07:52;6.50;87.30
58339;DHT22;48278;52.704;6.536;2023-03-14T15:10:20;6.60;89.70
58339;DHT22;48278;52.704;6.536;2023-03-14T15:12:46;6.80;91.30
58339;DHT22;48278;52.704;6.536;2023-03-14T15:15:16;6.80;83.00
58339;DHT22;48278;52.704;6.536;2023-03-14T15:17:42;6.80;83.20
58339;DHT22;48278;52.704;6.536;2023-03-14T15:20:14;6.80;79.30
58339;DHT22;48278;52.704;6.536;2023-03-14T15:22:40;6.70;77.50
58339;DHT22;48278;52.704;6.536;2023-03-14T15:25:07;6.70;77.50
58339;DHT22;48278;52.704;6.536;2023-03-14T15:27:34;6.70;79.30
58339;DHT22;48278;52.704;6.536;2023-03-14T15:30:00;6.70;80.20
58339;DHT22;48278;52.704;6.536;2023-03-14T15:32:26;6.70;81.70
58339;DHT22;48278;52.704;6.536;2023-03-14T15:34:56;6.70;82.20
58339;DHT22;48278;52.704;6.536;2023-03-14T15:37:21;6.90;84.20
58339;DHT22;48278;52.704;6.536;2023-03-14T15:39:47;6.60;79.80
58339;DHT22;48278;52.704;6.536;2023-03-14T15:42:13;6.50;81.80
58339;DHT22;48278;52.704;6.536;2023-03-14T15:44:39;6.40;82.40
58339;DHT22;48278;52.704;6.536;2023-03-14T15:47:05;6.40;83.10
58339;DHT22;48278;52.704;6.536;2023-03-14T15:49:31;6.40;84.90
58339;DHT22;48278;52.704;6.536;2023-03-14T15:51:57;6.40;84.60
58339;DHT22;48278;52.704;6.536;2023-03-14T15:54:24;6.40;86.90
58339;DHT22;48278;52.704;6.536;2023-03-14T15:56:54;6.20;92.10
58339;DHT22;48278;52.704;6.536;2023-03-14T15:59:21;5.50;99.10
58339;DHT22;48278;52.704;6.536;2023-03-14T16:01:47;5.40;99.90
58339;DHT22;48278;52.704;6.536;2023-03-14T16:04:15;5.40;99.90
58339;DHT22;48278;52.704;6.536;2023-03-14T16:06:42;5.40;99.90
58339;DHT22;48278;52.704;6.536;2023-03-14T16:09:13;5.50;99.90
58339;DHT22;48278;52.704;6.536;2023-03-14T16:11:39;5.60;98.30
58339;DHT22;48278;52.704;6.536;2023-03-14T16:14:05;5.60;99.00
58339;DHT22;48278;52.704;6.536;2023-03-14T16:16:31;5.60;98.70
58339;DHT22;48278;52.704;6.536;2023-03-14T16:18:57;5.60;99.30
58339;DHT22;48278;52.704;6.536;2023-03-14T16:21:23;5.60;98.30
58339;DHT22;48278;52.704;6.536;2023-03-14T16:23:49;5.60;96.40
58339;DHT22;48278;52.704;6.536;2023-03-14T16:26:17;5.60;97.30
58339;DHT22;48278;52.704;6.536;2023-03-14T16:28:44;5.60;96.70
58339;DHT22;48278;52.704;6.536;2023-03-14T16:31:12;5.60;97.20
58339;DHT22;48278;52.704;6.536;2023-03-14T16:33:38;5.60;98.80
58339;DHT22;48278;52.704;6.536;2023-03-14T16:36:06;5.60;99.10
58339;DHT22;48278;52.704;6.536;2023-03-14T16:38:37;5.60;97.60
58339;DHT22;48278;52.704;6.536;2023-03-14T16:41:14;5.60;96.10
58339;DHT22;48278;52.704;6.536;2023-03-14T16:43:40;5.60;97.00
58339;DHT22;48278;52.704;6.536;2023-03-14T16:46:10;5.60;95.90
58339;DHT22;48278;52.704;6.536;2023-03-14T16:48:36;5.60;96.80
58339;DHT22;48278;52.704;6.536;2023-03-14T16:51:02;5.60;96.30
58339;DHT22;48278;52.704;6.536;2023-03-14T16:53:28;5.60;97.10
58339;DHT22;48278;52.704;6.536;2023-03-14T16:55:55;5.40;99.80
58339;DHT22;48278;52.704;6.536;2023-03-14T16:58:21;5.10;99.90
58339;DHT22;48278;52.704;6.536;2023-03-14T17:00:48;5.10;99.90
58339;DHT22;48278;52.704;6.536;2023-03-14T17:03:15;5.00;99.90
58339;DHT22;48278;52.704;6.536;2023-03-14T17:05:48;4.90;99.90
58339;DHT22;48278;52.704;6.536;2023-03-14T17:08:16;4.80;99.90